Time;durP1;ratioP1;P1;durP2;ratioP2;P2;SDS_P1;SDS_P2;PMS_P1;PMS_P2;Temp;Humidity;BMP_temperature;BMP_pressure;BME280_temperature;BME280_humidity;BME280_pressure;Samples;Min_cycle;Max_cycle;Signal;HPM_P1;HPM_P2
2023/07/15 00:00:18;;;;;;;70.07;5.00;;;24.20;1.00;;;;;;5096760;28;20793;-80
2023/07/15 00:02:45;;;;;;;72.00;4.87;;;24.30;1.00;;;;;;5096691;28;20466;-80
2023/07/15 00:05:20;;;;;;;71.67;4.93;;;24.20;1.00;;;;;;5096752;28;20411;-80
2023/07/15 00:07:50;;;;;;;69.70;4.90;;;24.20;1.00;;;;;;5097095;28;20914;-80
2023/07/15 00:10:17;;;;;;;69.30;4.80;;;24.00;1.00;;;;;;5096934;28;20915;-81
2023/07/15 00:12:43;;;;;;;68.47;4.90;;;24.00;1.00;;;;;;5096836;28;20536;-80
2023/07/15 00:15:11;;;;;;;70.17;5.10;;;24.00;1.00;;;;;;5097008;28;20400;-81
2023/07/15 00:17:37;;;;;;;70.10;5.20;;;24.00;1.00;;;;;;5097051;28;20571;-80
2023/07/15 00:20:07;;;;;;;71.97;6.20;;;24.00;1.00;;;;;;5096630;28;20534;-80
2023/07/15 00:22:34;;;;;;;68.73;5.60;;;24.00;1.00;;;;;;5078003;28;20164;-80
2023/07/15 00:24:59;;;;;;;70.10;5.60;;;24.00;1.00;;;;;;5096046;28;20538;-81
2023/07/15 00:27:25;;;;;;;69.53;5.63;;;24.00;1.00;;;;;;5100199;28;20423;-81
2023/07/15 00:29:51;;;;;;;69.53;5.50;;;23.80;1.00;;;;;;5100219;28;20169;-80
2023/07/15 00:32:17;;;;;;;72.27;5.33;;;23.90;1.00;;;;;;5100529;28;20167;-80
2023/07/15 00:34:43;;;;;;;68.87;5.10;;;23.80;1.00;;;;;;5099685;28;20638;-80
2023/07/15 00:37:08;;;;;;;74.23;5.07;;;23.90;1.00;;;;;;5100203;28;20426;-81
2023/07/15 00:39:35;;;;;;;68.97;5.40;;;23.80;1.00;;;;;;5100061;28;20193;-80
2023/07/15 00:42:10;;;;;;;69.00;5.57;;;23.80;1.00;;;;;;5099472;28;20430;-81
2023/07/15 00:44:35;;;;;;;68.27;5.40;;;23.70;1.00;;;;;;5081318;28;20426;-80
2023/07/15 00:47:12;;;;;;;72.73;6.00;;;23.80;1.00;;;;;;5098486;28;20399;-80
2023/07/15 00:49:39;;;;;;;69.57;5.00;;;23.70;1.00;;;;;;5098171;28;20180;-80
2023/07/15 00:52:09;;;;;;;70.70;5.97;;;23.70;1.00;;;;;;5080469;28;20412;-80
2023/07/15 00:54:44;;;;;;;70.07;6.20;;;23.70;1.00;;;;;;5080081;28;20409;-80
2023/07/15 00:57:13;;;;;;;69.27;5.23;;;23.80;1.00;;;;;;5080281;28;20496;-80
2023/07/15 00:59:40;;;;;;;70.00;6.00;;;23.80;1.00;;;;;;5098254;28;20950;-80
2023/07/15 01:02:07;;;;;;;68.70;6.30;;;23.80;1.00;;;;;;5080434;28;20456;-80
2023/07/15 01:04:33;;;;;;;69.77;6.60;;;23.80;1.00;;;;;;5098722;28;20818;-80
2023/07/15 01:06:59;;;;;;;71.70;7.27;;;23.80;1.00;;;;;;5080668;28;20410;-80
2023/07/15 01:09:25;;;;;;;70.33;6.57;;;23.70;1.00;;;;;;5080195;28;20227;-80
2023/07/15 01:11:50;;;;;;;70.50;7.60;;;23.70;1.00;;;;;;5098429;28;20205;-80
2023/07/15 01:14:16;;;;;;;69.30;7.20;;;23.70;1.00;;;;;;5097712;28;20853;-80
2023/07/15 01:16:42;;;;;;;71.20;7.97;;;23.70;1.00;;;;;;5098055;28;20260;-80
2023/07/15 01:19:08;;;;;;;70.60;8.33;;;23.70;1.00;;;;;;5079222;28;20179;-80
2023/07/15 01:21:35;;;;;;;69.70;8.43;;;23.60;1.00;;;;;;5097884;28;20210;-80
2023/07/15 01:24:06;;;;;;;70.10;8.37;;;23.50;1.00;;;;;;5098280;28;20970;-80
2023/07/15 01:26:32;;;;;;;70.87;8.20;;;23.50;1.00;;;;;;5097403;28;20392;-80
2023/07/15 01:28:58;;;;;;;70.20;8.03;;;23.50;1.00;;;;;;5079856;28;20429;-80
2023/07/15 01:31:25;;;;;;;68.97;7.27;;;23.50;1.00;;;;;;5100556;28;20428;-80
2023/07/15 01:33:52;;;;;;;72.23;8.60;;;23.40;1.00;;;;;;5081644;28;20191;-80
2023/07/15 01:36:18;;;;;;;70.20;7.80;;;23.40;1.00;;;;;;5098802;28;20459;-80
2023/07/15 01:38:43;;;;;;;69.80;7.40;;;23.40;1.00;;;;;;5098346;28;20418;-80
2023/07/15 01:41:09;;;;;;;69.10;8.10;;;23.30;1.00;;;;;;5098792;28;20199;-80
2023/07/15 01:43:35;;;;;;;69.27;8.07;;;23.30;1.00;;;;;;5098945;28;20185;-80
2023/07/15 01:46:01;;;;;;;69.90;9.07;;;23.20;1.00;;;;;;5080774;28;20916;-80
2023/07/15 01:48:27;;;;;;;71.37;7.60;;;23.10;1.00;;;;;;5098408;28;20410;-80
2023/07/15 01:50:52;;;;;;;70.07;7.77;;;22.90;1.00;;;;;;5098433;28;20179;-80
2023/07/15 01:53:18;;;;;;;69.63;8.00;;;22.80;1.00;;;;;;5098566;28;20169;-80
2023/07/15 01:55:44;;;;;;;68.10;7.20;;;22.80;1.00;;;;;;5097743;28;20167;-80
2023/07/15 01:58:10;;;;;;;70.10;8.03;;;22.80;1.00;;;;;;5079797;28;20654;-80
2023/07/15 02:00:35;;;;;;;70.87;8.27;;;22.60;1.00;;;;;;5143061;22;20215;-79
2023/07/15 02:03:01;;;;;;;69.10;7.67;;;22.50;1.00;;;;;;5075351;28;20160;-80
2023/07/15 02:05:27;;;;;;;70.47;8.10;;;22.60;1.00;;;;;;5075930;28;20172;-79
2023/07/15 02:07:52;;;;;;;69.40;7.87;;;22.60;1.00;;;;;;5077316;28;20176;-79
2023/07/15 02:10:18;;;;;;;68.30;7.30;;;22.50;1.00;;;;;;5076512;28;20166;-80
2023/07/15 02:12:44;;;;;;;71.03;7.80;;;22.40;1.00;;;;;;5076738;28;20168;-80
2023/07/15 02:15:10;;;;;;;72.77;8.23;;;22.50;1.00;;;;;;5075097;28;20178;-80
2023/07/15 02:17:35;;;;;;;71.23;7.10;;;22.60;1.00;;;;;;5076302;28;20408;-80
2023/07/15 02:20:01;;;;;;;72.50;7.83;;;22.60;1.00;;;;;;5076207;28;20556;-79
2023/07/15 02:22:27;;;;;;;68.70;7.37;;;22.50;1.00;;;;;;5076221;28;20186;-80
2023/07/15 02:24:53;;;;;;;69.43;7.50;;;22.60;1.00;;;;;;5076204;28;20216;-80
2023/07/15 02:27:19;;;;;;;69.90;7.03;;;22.60;1.00;;;;;;5076627;28;20623;-80
2023/07/15 02:29:44;;;;;;;69.80;7.00;;;22.70;1.00;;;;;;5076301;28;20479;-80
2023/07/15 02:32:34;;;;;;;68.97;7.53;;;22.70;1.00;;;;;;5076263;28;20168;-80
2023/07/15 02:35:00;;;;;;;69.23;6.63;;;22.80;1.00;;;;;;5076489;28;20540;-80
2023/07/15 02:37:26;;;;;;;69.67;7.50;;;22.70;1.00;;;;;;5076083;28;20409;-80
2023/07/15 02:39:51;;;;;;;68.30;7.03;;;22.80;1.00;;;;;;5076237;28;20754;-80
2023/07/15 02:42:17;;;;;;;69.00;6.57;;;22.70;1.00;;;;;;5076071;28;20631;-80
2023/07/15 02:44:43;;;;;;;69.07;6.60;;;22.60;1.00;;;;;;5076047;28;20159;-80
2023/07/15 02:47:08;;;;;;;67.77;6.50;;;22.50;1.00;;;;;;5075954;28;20160;-80
2023/07/15 02:49:34;;;;;;;68.20;6.70;;;22.70;1.00;;;;;;5075851;28;20180;-80
2023/07/15 02:51:59;;;;;;;68.10;6.13;;;22.50;1.00;;;;;;5076729;28;20192;-80
2023/07/15 02:54:25;;;;;;;68.07;6.40;;;22.50;1.00;;;;;;5076238;28;20187;-80
2023/07/15 02:56:53;;;;;;;70.17;7.07;;;22.60;1.00;;;;;;5076303;28;20524;-80
2023/07/15 02:59:19;;;;;;;69.60;7.57;;;22.70;1.00;;;;;;5074139;28;20231;-80
2023/07/15 03:01:44;;;;;;;68.37;6.90;;;22.60;1.00;;;;;;5075762;28;20449;-80
2023/07/15 03:04:10;;;;;;;69.07;7.30;;;22.40;1.00;;;;;;5075854;28;20504;-80
2023/07/15 03:06:36;;;;;;;69.03;7.20;;;22.40;1.00;;;;;;5076010;28;20650;-80
2023/07/15 03:09:02;;;;;;;71.00;7.53;;;22.30;1.00;;;;;;5075721;28;20180;-80
2023/07/15 03:11:28;;;;;;;67.93;6.30;;;22.40;1.00;;;;;;5075842;28;20156;-80
2023/07/15 03:13:54;;;;;;;68.87;7.50;;;22.40;1.00;;;;;;5075877;28;20237;-79
2023/07/15 03:16:22;;;;;;;70.47;7.20;;;22.50;1.00;;;;;;5076283;28;20404;-80
2023/07/15 03:18:48;;;;;;;69.00;7.10;;;22.40;1.00;;;;;;5075806;28;20838;-80
2023/07/15 03:21:13;;;;;;;71.20;6.57;;;22.50;1.00;;;;;;5075910;28;20533;-80
2023/07/15 03:23:39;;;;;;;68.63;7.43;;;22.60;1.00;;;;;;5076140;28;20438;-80
2023/07/15 03:26:05;;;;;;;70.60;6.60;;;22.60;1.00;;;;;;5076136;28;20168;-80
2023/07/15 03:28:30;;;;;;;68.77;6.77;;;22.70;1.00;;;;;;5075322;28;20234;-80
2023/07/15 03:30:56;;;;;;;67.77;5.40;;;22.60;1.00;;;;;;5075822;28;20168;-80
2023/07/15 03:33:22;;;;;;;67.77;6.37;;;22.60;1.00;;;;;;5076132;28;20187;-80
2023/07/15 03:35:47;;;;;;;68.20;6.47;;;22.60;1.00;;;;;;5075897;28;20591;-79
2023/07/15 03:38:13;;;;;;;68.37;6.77;;;22.60;1.00;;;;;;5075795;28;20270;-80
2023/07/15 03:40:39;;;;;;;69.60;6.63;;;22.60;1.00;;;;;;5075619;28;20184;-80
2023/07/15 03:43:04;;;;;;;69.20;5.80;;;22.50;1.00;;;;;;5076037;28;20167;-80
2023/07/15 03:45:30;;;;;;;69.33;5.90;;;22.50;1.00;;;;;;5076153;28;20171;-80
2023/07/15 03:47:56;;;;;;;67.60;6.00;;;22.40;1.00;;;;;;5075417;28;20180;-79
2023/07/15 03:50:21;;;;;;;67.80;5.10;;;22.40;1.00;;;;;;5074194;28;20248;-80
2023/07/15 03:52:47;;;;;;;68.10;6.30;;;22.40;1.00;;;;;;5074214;28;20264;-80
2023/07/15 03:55:12;;;;;;;67.90;5.80;;;22.50;1.00;;;;;;5075092;28;20228;-80
2023/07/15 03:57:38;;;;;;;67.63;5.63;;;22.50;1.00;;;;;;5074097;28;20210;-79
2023/07/15 04:00:16;;;;;;;68.60;5.73;;;22.50;1.00;;;;;;5076372;28;20222;-79
2023/07/15 04:02:44;;;;;;;67.90;4.83;;;22.50;1.00;;;;;;5079183;28;20151;-80
2023/07/15 04:05:11;;;;;;;69.30;4.63;;;22.50;1.00;;;;;;5078795;28;20424;-80
2023/07/15 04:07:37;;;;;;;70.10;5.00;;;22.40;1.00;;;;;;5079249;28;20394;-80
2023/07/15 04:10:03;;;;;;;68.63;4.70;;;22.40;1.00;;;;;;5079305;28;20402;-80
2023/07/15 04:12:29;;;;;;;77.63;4.60;;;22.40;1.00;;;;;;5079121;28;20398;-80
2023/07/15 04:14:54;;;;;;;68.80;5.33;;;22.30;1.00;;;;;;5079153;28;20409;-80
2023/07/15 04:17:20;;;;;;;68.57;4.60;;;22.40;1.00;;;;;;5079091;28;20171;-80
2023/07/15 04:19:46;;;;;;;68.23;5.33;;;22.50;1.00;;;;;;5078822;28;20257;-80
2023/07/15 04:22:12;;;;;;;67.27;5.00;;;22.40;1.00;;;;;;5078552;28;20651;-80
2023/07/15 04:24:38;;;;;;;74.37;4.67;;;22.30;1.00;;;;;;5077230;28;20167;-79
2023/07/15 04:27:04;;;;;;;67.70;5.10;;;22.40;1.00;;;;;;5078724;28;20400;-80
2023/07/15 04:29:31;;;;;;;71.50;4.60;;;22.30;1.00;;;;;;5079383;28;20525;-80
2023/07/15 04:31:57;;;;;;;69.60;4.77;;;22.30;1.00;;;;;;5078478;28;20446;-79
2023/07/15 04:34:22;;;;;;;70.80;4.90;;;22.30;1.00;;;;;;5077865;28;20407;-80
2023/07/15 04:36:48;;;;;;;67.20;4.13;;;22.30;1.00;;;;;;5078725;28;20540;-79
2023/07/15 04:39:17;;;;;;;67.30;4.10;;;22.20;1.00;;;;;;5078275;28;20184;-80
2023/07/15 04:41:43;;;;;;;68.57;5.10;;;22.10;1.00;;;;;;5078167;28;20438;-79
2023/07/15 04:44:08;;;;;;;68.37;5.33;;;22.10;1.00;;;;;;5078859;28;20398;-80
2023/07/15 04:46:34;;;;;;;69.30;5.27;;;22.20;1.00;;;;;;5078484;28;20167;-80
2023/07/15 04:49:00;;;;;;;68.03;5.63;;;22.50;1.00;;;;;;5077878;28;20176;-79
2023/07/15 04:51:25;;;;;;;69.87;6.17;;;22.70;1.00;;;;;;5078981;28;20207;-80
2023/07/15 04:53:51;;;;;;;68.10;6.17;;;23.10;1.00;;;;;;5078575;28;20173;-79
2023/07/15 04:56:17;;;;;;;68.77;6.50;;;23.40;1.00;;;;;;5078818;28;20216;-79
2023/07/15 04:58:43;;;;;;;68.57;6.37;;;23.70;1.00;;;;;;5078045;28;20195;-80
2023/07/15 05:01:09;;;;;;;69.20;6.27;;;24.00;1.00;;;;;;5078259;28;20435;-79
2023/07/15 05:03:34;;;;;;;68.93;6.60;;;24.30;1.00;;;;;;5078238;28;20683;-80
2023/07/15 05:06:00;;;;;;;68.60;7.00;;;24.60;1.00;;;;;;5077112;28;20204;-79
2023/07/15 05:08:27;;;;;;;71.17;7.53;;;24.70;1.00;;;;;;5076804;28;20198;-79
2023/07/15 05:10:53;;;;;;;69.70;6.70;;;24.70;1.00;;;;;;5076288;28;20403;-79
2023/07/15 05:13:19;;;;;;;70.53;7.10;;;24.60;1.00;;;;;;5077180;28;20488;-80
2023/07/15 05:15:45;;;;;;;68.60;7.20;;;24.60;1.00;;;;;;5078095;28;20413;-80
2023/07/15 05:18:10;;;;;;;68.77;7.07;;;24.60;1.00;;;;;;5076524;28;20199;-79
2023/07/15 05:20:37;;;;;;;68.40;6.70;;;24.40;1.00;;;;;;5076669;28;20206;-79
2023/07/15 05:23:04;;;;;;;69.27;6.67;;;24.20;1.00;;;;;;5077622;28;20167;-78
2023/07/15 05:25:30;;;;;;;68.70;6.40;;;24.20;1.00;;;;;;5078037;28;20495;-79
2023/07/15 05:27:57;;;;;;;73.67;8.20;;;24.20;1.00;;;;;;5077232;28;20444;-78
2023/07/15 05:30:23;;;;;;;70.00;8.00;;;24.20;1.00;;;;;;5077495;28;20426;-77
2023/07/15 05:32:48;;;;;;;68.17;6.40;;;24.20;1.00;;;;;;5077745;28;20403;-78
2023/07/15 05:35:17;;;;;;;70.70;7.40;;;24.20;1.00;;;;;;5078148;28;20688;-78
2023/07/15 05:37:43;;;;;;;69.70;6.67;;;24.10;1.00;;;;;;5076221;28;20583;-78
2023/07/15 05:40:10;;;;;;;72.57;7.37;;;24.10;1.00;;;;;;5075735;28;20986;-78
2023/07/15 05:42:45;;;;;;;69.37;7.87;;;24.00;1.00;;;;;;5076961;28;20436;-78
2023/07/15 05:45:12;;;;;;;69.80;5.90;;;24.00;1.00;;;;;;5077131;28;20397;-79
2023/07/15 05:47:38;;;;;;;74.10;9.07;;;23.90;1.00;;;;;;5076890;28;20398;-79
2023/07/15 05:50:06;;;;;;;68.30;6.67;;;24.00;1.00;;;;;;5077588;28;20451;-79
2023/07/15 05:52:32;;;;;;;69.80;7.27;;;24.10;1.00;;;;;;5077637;28;20459;-79
2023/07/15 05:54:58;;;;;;;69.00;6.63;;;24.10;1.00;;;;;;5076946;28;20488;-79
2023/07/15 05:57:23;;;;;;;70.17;7.37;;;24.10;1.00;;;;;;5076373;28;20176;-79
2023/07/15 05:59:49;;;;;;;69.33;6.93;;;24.20;1.00;;;;;;5076978;28;20245;-79
2023/07/15 06:02:15;;;;;;;68.07;6.60;;;24.30;1.00;;;;;;5077339;28;20163;-79
2023/07/15 06:04:40;;;;;;;69.07;6.37;;;24.30;1.00;;;;;;5077393;28;20617;-79
2023/07/15 06:07:06;;;;;;;68.63;6.50;;;24.40;1.00;;;;;;5077498;28;20626;-79
2023/07/15 06:09:32;;;;;;;69.73;6.43;;;24.50;1.00;;;;;;5076919;28;20190;-79
2023/07/15 06:11:57;;;;;;;68.97;6.77;;;24.50;1.00;;;;;;5076999;28;20177;-79
2023/07/15 06:14:23;;;;;;;68.57;5.93;;;24.70;1.00;;;;;;5076886;28;20683;-79
2023/07/15 06:16:48;;;;;;;68.37;6.40;;;24.70;1.00;;;;;;5077001;28;20188;-80
2023/07/15 06:19:14;;;;;;;68.70;7.10;;;24.80;1.00;;;;;;5076534;28;20183;-78
2023/07/15 06:21:43;;;;;;;71.10;7.07;;;24.80;1.00;;;;;;5076353;28;20715;-80
2023/07/15 06:24:09;;;;;;;68.97;6.90;;;24.90;1.00;;;;;;5075375;28;20189;-79
2023/07/15 06:26:35;;;;;;;68.80;6.50;;;25.10;1.00;;;;;;5076658;28;20416;-80
2023/07/15 06:29:01;;;;;;;67.67;6.00;;;25.20;1.00;;;;;;5076382;28;20306;-80
2023/07/15 06:31:30;;;;;;;68.70;5.90;;;25.30;1.00;;;;;;5076340;28;20918;-80
2023/07/15 06:33:56;;;;;;;70.87;7.17;;;25.50;1.00;;;;;;5076708;28;20489;-80
2023/07/15 06:36:22;;;;;;;74.20;7.93;;;25.60;1.00;;;;;;5076679;28;20987;-79
2023/07/15 06:38:47;;;;;;;70.50;7.23;;;25.70;1.00;;;;;;5077001;28;20205;-80
2023/07/15 06:41:13;;;;;;;68.23;7.17;;;25.80;1.00;;;;;;5076598;28;20804;-80
2023/07/15 06:43:39;;;;;;;67.47;5.27;;;25.90;1.00;;;;;;5076890;28;20164;-80
2023/07/15 06:46:06;;;;;;;71.60;6.33;;;25.90;1.00;;;;;;5075012;28;20178;-80
2023/07/15 06:48:32;;;;;;;71.73;6.17;;;25.80;1.00;;;;;;5075183;28;20195;-80
2023/07/15 06:50:57;;;;;;;68.40;7.13;;;25.90;1.00;;;;;;5076214;28;20889;-78
2023/07/15 06:53:23;;;;;;;72.03;5.30;;;25.80;1.00;;;;;;5076415;28;20174;-76
2023/07/15 06:55:50;;;;;;;70.40;6.63;;;25.80;1.00;;;;;;5075762;28;20179;-79
2023/07/15 06:58:16;;;;;;;71.57;6.50;;;25.90;1.00;;;;;;5076133;28;20192;-77
2023/07/15 07:00:42;;;;;;;68.03;6.70;;;25.90;1.00;;;;;;5075797;28;21090;-78
2023/07/15 07:03:07;;;;;;;68.50;5.17;;;25.90;1.00;;;;;;5075435;28;20508;-79
2023/07/15 07:05:33;;;;;;;69.50;6.57;;;25.80;1.00;;;;;;5074864;28;20535;-78
2023/07/15 07:08:02;;;;;;;72.80;6.10;;;25.80;1.00;;;;;;5076500;28;20604;-78
2023/07/15 07:10:28;;;;;;;69.27;4.93;;;25.80;1.00;;;;;;5075387;28;20176;-79
2023/07/15 07:12:53;;;;;;;68.47;6.03;;;25.70;1.00;;;;;;5076016;28;20410;-79
2023/07/15 07:15:19;;;;;;;68.87;7.03;;;25.70;1.00;;;;;;5074990;28;20178;-80
2023/07/15 07:17:45;;;;;;;69.93;6.63;;;25.60;1.00;;;;;;5076568;28;20199;-80
2023/07/15 07:20:11;;;;;;;68.87;6.27;;;25.60;1.00;;;;;;5076285;28;20218;-78
2023/07/15 07:22:36;;;;;;;69.70;7.10;;;25.50;1.00;;;;;;5076157;28;20171;-79
2023/07/15 07:25:03;;;;;;;69.17;5.30;;;25.40;1.00;;;;;;5076991;28;20400;-79
2023/07/15 07:27:28;;;;;;;69.03;5.87;;;25.30;1.00;;;;;;5076599;28;20497;-79
2023/07/15 07:29:58;;;;;;;69.93;4.53;;;25.30;1.00;;;;;;5074836;28;20409;-79
2023/07/15 07:32:24;;;;;;;69.33;4.73;;;25.30;1.00;;;;;;5075125;28;20155;-79
2023/07/15 07:34:49;;;;;;;67.97;4.23;;;25.10;1.00;;;;;;5075334;28;20401;-78
2023/07/15 07:37:15;;;;;;;67.67;3.50;;;25.00;1.00;;;;;;5078434;28;20163;-78
2023/07/15 07:39:40;;;;;;;66.80;3.73;;;24.90;1.00;;;;;;5079044;28;20191;-78
2023/07/15 07:42:07;;;;;;;67.50;3.90;;;24.70;1.00;;;;;;5079530;28;20163;-80
2023/07/15 07:44:33;;;;;;;69.77;4.03;;;24.60;1.00;;;;;;5078821;28;20155;-78
2023/07/15 07:46:59;;;;;;;69.47;3.90;;;24.60;1.00;;;;;;5079012;28;20420;-79
2023/07/15 07:49:24;;;;;;;67.80;3.63;;;24.60;1.00;;;;;;5077243;28;20190;-79
2023/07/15 07:51:50;;;;;;;69.17;4.13;;;24.60;1.00;;;;;;5078762;28;20251;-79
2023/07/15 07:54:16;;;;;;;70.40;4.17;;;24.60;1.00;;;;;;5078732;28;20229;-78
2023/07/15 07:56:41;;;;;;;67.97;4.17;;;24.70;1.00;;;;;;5079189;28;20219;-78
2023/07/15 07:59:07;;;;;;;74.93;4.70;;;24.60;1.00;;;;;;5164231;22;20308;-81
2023/07/15 08:01:33;;;;;;;69.03;3.80;;;24.60;1.00;;;;;;5119791;28;20197;-80
2023/07/15 08:04:00;;;;;;;67.90;3.70;;;24.50;1.00;;;;;;5120142;28;20526;-80
2023/07/15 08:06:25;;;;;;;71.40;4.30;;;24.40;1.00;;;;;;5101783;28;20412;-80
2023/07/15 08:08:52;;;;;;;69.30;3.77;;;24.40;1.00;;;;;;5107453;28;20460;-81
2023/07/15 08:11:18;;;;;;;66.60;5.33;;;24.40;1.00;;;;;;5099687;28;20171;-80
2023/07/15 08:13:43;;;;;;;68.17;5.23;;;24.30;1.00;;;;;;5098644;28;20411;-79
2023/07/15 08:16:45;;;;;;;71.23;6.30;;;24.30;1.00;;;;;;5098525;28;20562;-79
2023/07/15 08:19:11;;;;;;;66.70;5.87;;;24.00;1.00;;;;;;5035472;28;20194;-78
2023/07/15 08:21:37;;;;;;;71.07;6.00;;;23.70;1.00;;;;;;5085005;28;20469;-78
2023/07/15 08:24:03;;;;;;;67.77;5.60;;;23.70;1.00;;;;;;5097816;28;20174;-78
2023/07/15 08:26:29;;;;;;;67.33;8.43;;;23.50;1.50;;;;;;5097850;28;20410;-78
2023/07/15 08:28:55;;;;;;;69.03;11.40;;;23.40;9.00;;;;;;5097644;28;20427;-78
2023/07/15 08:31:21;;;;;;;72.27;10.20;;;23.40;23.50;;;;;;5096917;28;20532;-79
2023/07/15 08:33:47;;;;;;;71.40;12.80;;;23.20;23.30;;;;;;5096813;28;20455;-78
2023/07/15 08:36:13;;;;;;;68.90;9.93;;;23.30;24.60;;;;;;5096732;28;20385;-78
2023/07/15 08:38:38;;;;;;;68.90;12.23;;;23.20;39.00;;;;;;5097380;28;20203;-78
2023/07/15 08:41:04;;;;;;;71.50;14.27;;;23.20;41.00;;;;;;5097253;28;20443;-78
2023/07/15 08:43:30;;;;;;;69.87;11.73;;;23.20;54.60;;;;;;5096933;28;20161;-79
2023/07/15 08:45:59;;;;;;;70.67;15.80;;;23.10;45.90;;;;;;5078132;28;20169;-78
2023/07/15 08:48:26;;;;;;;69.37;15.73;;;23.00;75.50;;;;;;5096569;28;20417;-78
2023/07/15 08:50:57;;;;;;;73.03;19.20;;;22.90;77.00;;;;;;5096686;28;20496;-79
2023/07/15 08:53:27;;;;;;;74.57;23.03;;;22.80;70.50;;;;;;5096690;28;20389;-80
2023/07/15 08:55:56;;;;;;;75.10;21.17;;;22.70;69.70;;;;;;5096288;28;20382;-80
2023/07/15 08:58:23;;;;;;;73.33;20.77;;;22.70;92.30;;;;;;5096195;28;20848;-80
2023/07/15 09:00:51;;;;;;;70.17;19.20;;;22.60;93.50;;;;;;5095891;28;20460;-81
2023/07/15 09:03:17;;;;;;;68.77;14.93;;;22.50;95.50;;;;;;5095913;28;20760;-81
2023/07/15 09:05:43;;;;;;;72.90;17.47;;;22.50;99.90;;;;;;5096290;28;20738;-81
2023/07/15 09:08:13;;;;;;;70.67;17.50;;;22.40;99.90;;;;;;5095803;28;20414;-80
2023/07/15 09:10:56;;;;;;;71.97;15.10;;;22.50;99.40;;;;;;5098287;28;20545;-80
2023/07/15 09:13:26;;;;;;;68.83;14.97;;;22.60;98.00;;;;;;5079708;28;20410;-79
2023/07/15 09:15:56;;;;;;;68.37;13.67;;;22.60;97.00;;;;;;5098041;28;20386;-80
2023/07/15 09:18:23;;;;;;;68.10;12.50;;;22.70;91.10;;;;;;5097575;28;20428;-79
2023/07/15 09:20:49;;;;;;;69.17;12.67;;;22.60;97.90;;;;;;5079823;28;20524;-79
2023/07/15 09:23:15;;;;;;;66.93;11.47;;;22.70;98.30;;;;;;5097551;28;20398;-80
2023/07/15 09:25:53;;;;;;;69.07;11.77;;;22.50;99.90;;;;;;5097485;28;20443;-79
2023/07/15 09:28:20;;;;;;;71.70;13.10;;;22.50;99.90;;;;;;5078560;28;20421;-79
2023/07/15 09:30:46;;;;;;;74.33;13.70;;;22.40;99.90;;;;;;5096569;28;20378;-78
2023/07/15 09:33:33;;;;;;;71.27;14.73;;;22.30;99.90;;;;;;5095085;28;20810;-77
2023/07/15 09:36:02;;;;;;;69.07;17.13;;;22.30;99.90;;;;;;5095300;28;20163;-78
2023/07/15 09:38:33;;;;;;;72.90;21.97;;;22.20;99.90;;;;;;5095021;28;20466;-77
2023/07/15 09:40:59;;;;;;;70.57;18.90;;;22.10;99.90;;;;;;5094846;28;20494;-77
2023/07/15 09:43:49;;;;;;;74.83;21.30;;;22.20;99.90;;;;;;5095075;28;20749;-77
2023/07/15 09:46:19;;;;;;;73.13;22.83;;;22.20;99.90;;;;;;5094784;28;20423;-77
2023/07/15 09:48:46;;;;;;;70.87;22.30;;;22.20;99.90;;;;;;5094742;28;20951;-77
2023/07/15 09:51:16;;;;;;;74.00;24.43;;;22.10;99.90;;;;;;5094705;28;20409;-77
2023/07/15 09:53:48;;;;;;;76.43;24.10;;;22.10;99.90;;;;;;5094966;28;20861;-78
2023/07/15 09:56:16;;;;;;;76.03;27.13;;;22.00;99.90;;;;;;5095339;28;20390;-78
2023/07/15 09:58:47;;;;;;;71.90;25.47;;;22.00;99.90;;;;;;5094871;28;20475;-78
2023/07/15 10:01:36;;;;;;;69.93;19.67;;;22.00;99.90;;;;;;5094840;28;20433;-78
2023/07/15 10:04:16;;;;;;;73.27;23.30;;;22.10;99.90;;;;;;5094983;28;20505;-77
2023/07/15 10:06:43;;;;;;;74.83;21.00;;;22.10;99.90;;;;;;5094852;28;20401;-78
2023/07/15 10:09:10;;;;;;;70.53;19.67;;;22.10;99.90;;;;;;5095007;28;20534;-78
2023/07/15 10:11:36;;;;;;;74.00;21.07;;;22.00;99.90;;;;;;5094866;28;20382;-78
2023/07/15 10:14:03;;;;;;;72.53;22.80;;;22.10;99.90;;;;;;5094829;28;20737;-78
2023/07/15 10:16:33;;;;;;;72.07;26.17;;;22.00;99.90;;;;;;5094694;28;20394;-77
2023/07/15 10:19:01;;;;;;;71.97;24.60;;;22.00;99.90;;;;;;5076400;28;21010;-78
2023/07/15 10:21:27;;;;;;;71.70;23.67;;;22.00;99.90;;;;;;5076161;28;20472;-78
2023/07/15 10:24:08;;;;;;;73.30;30.27;;;22.00;99.90;;;;;;5094670;28;20397;-78
2023/07/15 10:26:34;;;;;;;76.70;31.73;;;22.00;99.90;;;;;;5095000;28;20152;-78
2023/07/15 10:29:03;;;;;;;77.40;32.53;;;22.00;99.90;;;;;;5094492;28;20413;-78
2023/07/15 10:31:30;;;;;;;79.27;38.70;;;21.90;99.90;;;;;;5094771;28;20151;-78
2023/07/15 10:34:03;;;;;;;78.13;38.47;;;21.90;99.90;;;;;;5076162;28;20900;-78
2023/07/15 10:36:40;;;;;;;81.77;44.77;;;21.80;99.90;;;;;;5094885;28;20386;-78
2023/07/15 10:39:20;;;;;;;78.73;41.03;;;21.90;99.90;;;;;;5076814;28;20780;-78
2023/07/15 10:41:48;;;;;;;81.23;48.10;;;22.00;99.90;;;;;;5095083;28;20428;-78
2023/07/15 10:44:22;;;;;;;76.53;38.77;;;22.00;99.90;;;;;;5095136;28;20455;-79
2023/07/15 10:47:00;;;;;;;78.77;40.80;;;22.10;99.90;;;;;;5095419;28;20465;-78
2023/07/15 10:49:27;;;;;;;79.10;43.57;;;22.10;99.90;;;;;;5095206;28;20466;-79
2023/07/15 10:51:54;;;;;;;77.40;39.57;;;22.10;99.90;;;;;;5076935;28;20449;-78
2023/07/15 10:54:25;;;;;;;79.97;40.40;;;22.20;99.90;;;;;;5094966;28;20401;-79
2023/07/15 10:56:51;;;;;;;81.97;39.67;;;22.40;99.90;;;;;;5095286;28;20892;-79
2023/07/15 10:59:43;;;;;;;77.23;40.50;;;22.40;99.90;;;;;;5094673;28;20858;-79
2023/07/15 11:02:10;;;;;;;80.17;43.17;;;22.50;99.90;;;;;;5094619;28;20460;-79
2023/07/15 11:04:37;;;;;;;82.10;46.90;;;22.60;99.90;;;;;;5094387;28;20404;-79
2023/07/15 11:07:05;;;;;;;82.00;47.30;;;22.60;99.90;;;;;;5094701;28;20397;-79
2023/07/15 11:09:31;;;;;;;80.17;38.70;;;22.90;99.90;;;;;;5095448;28;20505;-79
2023/07/15 11:11:57;;;;;;;77.07;37.00;;;23.10;99.90;;;;;;5096343;28;20408;-79
2023/07/15 11:14:28;;;;;;;75.10;33.57;;;23.00;99.90;;;;;;5078292;28;20417;-79
2023/07/15 11:17:03;;;;;;;71.77;25.13;;;23.00;99.90;;;;;;5078125;28;20155;-79
2023/07/15 11:19:29;;;;;;;74.37;24.83;;;23.00;99.90;;;;;;5095830;28;20425;-79
2023/07/15 11:21:56;;;;;;;74.37;28.37;;;23.00;99.90;;;;;;5078029;28;20449;-79
2023/07/15 11:24:27;;;;;;;72.57;19.97;;;22.90;99.90;;;;;;5078121;28;20398;-80
2023/07/15 11:26:54;;;;;;;69.33;13.47;;;23.00;99.90;;;;;;5096542;28;20919;-80
2023/07/15 11:29:21;;;;;;;68.57;14.47;;;22.90;99.90;;;;;;5076425;28;20433;-79
2023/07/15 11:31:51;;;;;;;67.50;13.20;;;23.00;99.90;;;;;;5076331;28;20488;-79
2023/07/15 11:34:19;;;;;;;73.27;16.40;;;23.00;99.90;;;;;;5094806;28;20386;-79
2023/07/15 11:36:46;;;;;;;71.50;15.33;;;23.20;99.90;;;;;;5095259;28;20916;-79
2023/07/15 11:39:12;;;;;;;68.97;15.60;;;23.40;99.90;;;;;;5094779;28;20479;-80
2023/07/15 11:41:38;;;;;;;73.03;15.70;;;23.60;99.90;;;;;;5094547;28;20498;-79
2023/07/15 11:44:07;;;;;;;70.00;12.17;;;23.50;99.90;;;;;;5094958;28;20403;-79
2023/07/15 11:46:33;;;;;;;71.10;15.00;;;23.90;99.90;;;;;;5094378;28;20176;-79
2023/07/15 11:48:59;;;;;;;72.27;15.53;;;24.20;99.90;;;;;;5094116;28;20459;-79
2023/07/15 11:51:25;;;;;;;68.43;15.57;;;24.40;99.90;;;;;;5076072;28;20983;-79
2023/07/15 11:53:54;;;;;;;70.97;10.80;;;24.50;99.90;;;;;;5094228;28;20198;-79
2023/07/15 11:56:39;;;;;;;69.83;15.40;;;24.60;99.90;;;;;;5094261;28;20228;-80
2023/07/15 11:59:11;;;;;;;70.60;15.23;;;24.70;99.90;;;;;;5094732;28;20462;-79
2023/07/15 12:01:38;;;;;;;71.93;22.03;;;24.60;99.90;;;;;;5095111;28;20434;-79
2023/07/15 12:04:14;;;;;;;71.20;18.13;;;24.70;99.90;;;;;;5094960;28;20898;-79
2023/07/15 12:06:52;;;;;;;68.83;15.67;;;24.70;99.90;;;;;;5076656;28;20410;-79
2023/07/15 12:09:18;;;;;;;71.53;18.97;;;24.60;99.90;;;;;;5076614;28;20947;-79
2023/07/15 12:11:46;;;;;;;71.47;17.53;;;24.60;99.90;;;;;;5075964;28;20402;-79
2023/07/15 12:14:13;;;;;;;72.43;22.60;;;24.40;99.90;;;;;;5095626;28;20803;-79
2023/07/15 12:16:40;;;;;;;72.93;23.03;;;24.60;99.90;;;;;;5096640;28;20404;-79
2023/07/15 12:19:08;;;;;;;77.00;36.00;;;24.40;99.90;;;;;;5094908;28;20434;-79
2023/07/15 12:21:34;;;;;;;79.13;37.87;;;24.50;99.90;;;;;;5096764;28;20448;-79
2023/07/15 12:23:59;;;;;;;75.17;28.03;;;24.50;99.90;;;;;;5098087;28;20955;-79
2023/07/15 12:26:25;;;;;;;77.80;36.07;;;24.60;99.90;;;;;;5080579;28;20538;-79
2023/07/15 12:28:52;;;;;;;79.57;32.47;;;24.40;99.90;;;;;;5098512;28;20435;-78
2023/07/15 12:31:17;;;;;;;72.57;26.83;;;24.40;99.90;;;;;;5098149;28;20408;-78
2023/07/15 12:33:44;;;;;;;78.50;38.33;;;24.60;99.90;;;;;;5097939;28;20400;-78
2023/07/15 12:36:11;;;;;;;75.40;33.57;;;24.50;99.90;;;;;;5097587;28;20241;-79
2023/07/15 12:38:38;;;;;;;75.60;27.33;;;24.20;99.90;;;;;;5097343;28;20428;-78
2023/07/15 12:41:05;;;;;;;69.67;17.30;;;24.10;99.90;;;;;;5098439;28;20440;-79